Time;durP1;ratioP1;P1;durP2;ratioP2;P2;SDS_P1;SDS_P2;PMS_P1;PMS_P2;Temp;Humidity;BMP_temperature;BMP_pressure;BME280_temperature;BME280_humidity;BME280_pressure;Samples;Min_cycle;Max_cycle;Signal;HPM_P1;HPM_P2
2023/12/18 00:01:30;;;;;;;328.75;162.95;;;;;;;-2.68;91.99;101523.06;5025287;28;20101;-75
2023/12/18 00:04:16;;;;;;;294.35;145.20;;;;;;;-2.72;91.58;101524.19;5033300;28;20461;-75
2023/12/18 00:07:10;;;;;;;280.27;144.25;;;;;;;-2.84;90.96;101508.34;5033298;28;20381;-75
2023/12/18 00:09:56;;;;;;;314.33;163.63;;;;;;;-2.80;92.60;101511.59;5027017;28;20045;-76
2023/12/18 00:12:41;;;;;;;331.80;176.27;;;;;;;-2.80;91.26;101516.78;5026929;28;20049;-77
2023/12/18 00:15:27;;;;;;;317.90;165.30;;;;;;;-2.95;92.10;101495.06;5032408;28;20037;-78
2023/12/18 00:18:13;;;;;;;293.05;151.15;;;;;;;-2.91;91.08;101513.97;5033347;28;20400;-76
2023/12/18 00:20:58;;;;;;;315.23;156.57;;;;;;;-2.98;91.89;101507.44;5025683;28;20127;-76
2023/12/18 00:23:44;;;;;;;300.20;157.20;;;;;;;-2.95;91.25;101512.47;5026698;28;20049;-75
2023/12/18 00:26:29;;;;;;;285.88;145.77;;;;;;;-3.02;92.10;101515.41;5026313;28;20480;-76
2023/12/18 00:29:15;;;;;;;266.52;133.35;;;;;;;-3.07;91.58;101501.84;5026441;28;20499;-75
2023/12/18 00:32:01;;;;;;;238.18;119.22;;;;;;;-3.08;92.43;101509.72;5032981;28;20045;-77
2023/12/18 00:34:46;;;;;;;197.05;96.53;;;;;;;-3.14;91.32;101502.25;5032454;28;20456;-77
2023/12/18 00:37:32;;;;;;;139.27;66.13;;;;;;;-3.24;90.91;101490.69;5025510;28;20037;-76
2023/12/18 00:40:17;;;;;;;84.93;45.38;;;;;;;-3.30;91.24;101484.06;5027259;28;20052;-75
2023/12/18 00:43:04;;;;;;;84.20;41.55;;;;;;;-3.22;91.30;101497.50;5032623;28;20421;-75
2023/12/18 00:45:50;;;;;;;69.70;36.53;;;;;;;-3.27;92.18;101500.31;5032212;28;20045;-75
2023/12/18 00:48:35;;;;;;;101.03;46.78;;;;;;;-3.32;91.78;101478.97;5033213;28;20052;-75
2023/12/18 00:51:21;;;;;;;94.07;44.53;;;;;;;-3.22;91.64;101502.69;5026129;28;20037;-75
2023/12/18 00:54:08;;;;;;;293.35;117.72;;;;;;;-3.21;91.84;101501.75;5026605;28;20392;-76
2023/12/18 00:56:53;;;;;;;214.77;77.82;;;;;;;-3.22;91.28;101474.06;5032004;28;21261;-76
2023/12/18 00:59:38;;;;;;;175.30;73.05;;;;;;;-3.14;90.54;101497.03;5032793;28;20056;-76
2023/12/18 01:02:24;;;;;;;228.02;104.00;;;;;;;-3.21;91.46;101490.50;5032431;28;20871;-76
2023/12/18 01:05:10;;;;;;;230.63;110.15;;;;;;;-3.22;91.36;101499.25;5026230;28;20045;-76
2023/12/18 01:07:56;;;;;;;241.73;110.47;;;;;;;-3.26;90.94;101494.22;5033093;28;20049;-75
2023/12/18 01:10:42;;;;;;;222.32;106.13;;;;;;;-3.45;92.03;101472.72;5026091;28;20650;-75
2023/12/18 01:13:27;;;;;;;186.35;90.05;;;;;;;-3.36;91.92;101494.78;5032465;28;20041;-75
2023/12/18 01:16:13;;;;;;;177.93;83.65;;;;;;;-3.40;92.24;101488.94;5030976;28;20041;-75
2023/12/18 01:18:59;;;;;;;131.10;59.88;;;;;;;-3.47;90.85;101485.00;5025781;28;20492;-77
2023/12/18 01:21:44;;;;;;;131.07;59.75;;;;;;;-3.39;92.17;101484.56;5032481;28;20052;-76
2023/12/18 01:24:30;;;;;;;116.88;53.95;;;;;;;-3.35;90.74;101486.94;5025635;28;20469;-76
2023/12/18 01:27:15;;;;;;;109.15;52.28;;;;;;;-3.34;91.85;101477.38;5025865;28;20053;-77
2023/12/18 01:30:01;;;;;;;115.68;51.15;;;;;;;-3.44;91.33;101471.84;5032531;28;20092;-77
2023/12/18 01:32:46;;;;;;;89.47;42.22;;;;;;;-3.54;90.64;101453.31;5025011;28;20049;-73
2023/12/18 01:35:33;;;;;;;79.53;38.97;;;;;;;-3.47;92.10;101459.00;5025666;28;20044;-77
2023/12/18 01:38:18;;;;;;;77.78;37.53;;;;;;;-3.49;91.55;101459.06;5030881;28;20044;-77
2023/12/18 01:41:04;;;;;;;84.50;38.90;;;;;;;-3.52;92.09;101454.03;5032424;28;20409;-77
2023/12/18 01:43:50;;;;;;;91.57;42.08;;;;;;;-3.58;90.93;101451.78;5032023;28;20048;-76
2023/12/18 01:46:38;;;;;;;95.40;43.97;;;;;;;-3.50;91.25;101459.16;5024909;28;20416;-75
2023/12/18 01:49:24;;;;;;;97.47;43.05;;;;;;;-3.47;90.74;101448.59;5032397;28;20052;-76
2023/12/18 01:52:10;;;;;;;91.47;41.25;;;;;;;-3.51;91.03;101445.34;5031534;28;20347;-77
2023/12/18 01:54:56;;;;;;;68.93;34.05;;;;;;;-3.61;90.56;101436.34;5025059;28;20392;-76
2023/12/18 01:57:41;;;;;;;46.58;24.10;;;;;;;-3.60;91.77;101434.63;5023549;28;20461;-76
2023/12/18 02:00:26;;;;;;;40.50;22.50;;;;;;;-3.66;91.15;101427.16;5029163;28;20041;-77
2023/12/18 02:03:12;;;;;;;35.90;19.40;;;;;;;-3.68;90.90;101423.78;5025847;28;20052;-77
2023/12/18 02:05:58;;;;;;;39.03;21.17;;;;;;;-3.77;91.70;101414.72;5024937;28;20468;-75
2023/12/18 02:08:43;;;;;;;57.97;26.70;;;;;;;-3.77;92.09;101423.34;5030429;28;20408;-75
2023/12/18 02:11:29;;;;;;;57.08;29.33;;;;;;;-3.80;91.42;101422.69;5024552;28;20482;-75
2023/12/18 02:14:14;;;;;;;66.35;33.60;;;;;;;-3.80;90.84;101414.91;5029698;28;20040;-75
2023/12/18 02:17:00;;;;;;;55.88;29.50;;;;;;;-3.81;91.48;101416.66;5023893;28;20456;-75
2023/12/18 02:19:45;;;;;;;63.85;34.42;;;;;;;-3.80;91.67;101417.50;5024728;28;20404;-76
2023/12/18 02:23:03;;;;;;;82.90;40.38;;;;;;;-3.77;90.85;101441.53;5024312;28;20052;-76
2023/12/18 02:25:49;;;;;;;111.93;54.30;;;;;;;-3.73;92.11;101430.09;5007413;28;20468;-74
2023/12/18 02:28:34;;;;;;;99.30;48.28;;;;;;;-3.73;91.27;101416.22;5031028;28;20048;-76
2023/12/18 02:31:20;;;;;;;94.43;48.13;;;;;;;-3.75;92.28;101413.72;5024523;28;20037;-76
2023/12/18 02:34:05;;;;;;;103.00;48.05;;;;;;;-3.76;91.93;101425.06;5024835;28;20040;-75
2023/12/18 02:36:51;;;;;;;85.45;43.13;;;;;;;-3.78;91.79;101424.28;5031607;28;20392;-75
2023/12/18 02:39:37;;;;;;;82.93;41.03;;;;;;;-3.78;92.29;101424.28;5024336;28;20223;-75
2023/12/18 02:42:22;;;;;;;81.28;41.38;;;;;;;-3.77;92.38;101415.56;5024622;28;20464;-76
2023/12/18 02:45:08;;;;;;;75.47;37.20;;;;;;;-3.83;91.98;101394.28;5030363;28;20033;-75
2023/12/18 02:47:53;;;;;;;74.68;37.95;;;;;;;-3.80;92.47;101394.09;5023937;28;20045;-76
2023/12/18 02:50:39;;;;;;;75.50;37.05;;;;;;;-3.83;91.50;101387.31;5024512;28;20053;-77
2023/12/18 02:53:24;;;;;;;83.57;39.35;;;;;;;-3.89;92.32;101392.84;5029443;28;20053;-75
2023/12/18 02:56:12;;;;;;;84.65;42.22;;;;;;;-3.88;91.15;101407.53;5035004;28;20044;-76
2023/12/18 02:58:57;;;;;;;87.18;44.13;;;;;;;-3.92;92.06;101394.78;5026790;28;20041;-76
2023/12/18 03:01:43;;;;;;;98.85;46.65;;;;;;;-3.83;91.18;101395.09;5030648;28;20363;-75
2023/12/18 03:04:29;;;;;;;96.30;45.15;;;;;;;-3.83;91.16;101399.47;5035045;28;20396;-76
2023/12/18 03:07:14;;;;;;;87.03;42.42;;;;;;;-3.80;91.63;101397.53;5028375;28;20472;-77
2023/12/18 03:10:00;;;;;;;104.35;47.17;;;;;;;-3.85;92.36;101391.78;5026979;28;20045;-76
2023/12/18 03:12:44;;;;;;;95.25;44.83;;;;;;;-3.83;91.07;101400.31;5035062;28;20048;-76
2023/12/18 03:15:30;;;;;;;101.15;47.08;;;;;;;-3.80;91.58;101394.94;5028959;28;20041;-75
2023/12/18 03:18:16;;;;;;;102.95;49.50;;;;;;;-3.83;91.56;101392.50;5028486;28;20492;-77
2023/12/18 03:21:01;;;;;;;119.00;56.95;;;;;;;-3.85;92.01;101389.19;5034486;28;20408;-76
2023/12/18 03:23:47;;;;;;;123.30;56.20;;;;;;;-3.86;91.32;101392.69;5027068;28;20037;-76
2023/12/18 03:26:32;;;;;;;123.95;58.75;;;;;;;-3.86;90.89;101397.88;5034522;28;20036;-76
2023/12/18 03:29:18;;;;;;;99.88;47.55;;;;;;;-3.90;91.99;101391.19;5034768;28;20052;-77
2023/12/18 03:32:04;;;;;;;107.35;49.97;;;;;;;-3.82;91.34;101394.22;5033870;28;20040;-76
2023/12/18 03:34:49;;;;;;;106.47;49.22;;;;;;;-3.88;91.07;101388.50;5035016;28;20464;-77
2023/12/18 03:37:35;;;;;;;108.47;51.90;;;;;;;-3.96;91.14;101384.56;5028056;28;20057;-77
2023/12/18 03:40:20;;;;;;;107.53;49.40;;;;;;;-3.91;91.45;101404.25;5034315;28;20037;-76
2023/12/18 03:43:06;;;;;;;129.27;55.97;;;;;;;-3.92;91.56;101418.16;5034683;28;20037;-76
2023/12/18 03:45:51;;;;;;;213.57;77.50;;;;;;;-3.96;92.57;101414.88;5026736;28;20050;-77
2023/12/18 03:48:37;;;;;;;218.98;80.45;;;;;;;-4.02;92.33;101415.22;5033229;28;20041;-77
2023/12/18 03:51:23;;;;;;;200.25;79.43;;;;;;;-3.93;91.68;101434.66;5033811;28;20465;-76
2023/12/18 03:54:08;;;;;;;195.90;78.03;;;;;;;-3.97;91.71;101431.41;5034930;28;20053;-76
2023/12/18 03:56:54;;;;;;;184.18;70.80;;;;;;;-3.91;92.67;101435.44;5027201;28;20053;-75
2023/12/18 03:59:39;;;;;;;196.80;78.63;;;;;;;-3.99;91.82;101421.09;5033839;28;20468;-76
2023/12/18 04:02:25;;;;;;;182.65;69.15;;;;;;;-3.96;91.20;101431.31;4988133;28;20478;-77
2023/12/18 04:05:11;;;;;;;216.88;79.60;;;;;;;-4.03;92.26;101434.31;4995030;28;20042;-75
2023/12/18 04:07:56;;;;;;;230.40;88.15;;;;;;;-4.06;92.02;101440.53;4987395;28;20034;-75
2023/12/18 04:10:42;;;;;;;244.77;95.47;;;;;;;-4.18;91.51;101416.03;4988420;28;20413;-77
2023/12/18 04:13:27;;;;;;;223.45;89.32;;;;;;;-4.04;92.54;101427.44;4994611;28;20049;-76
2023/12/18 04:16:13;;;;;;;234.82;97.32;;;;;;;-4.04;91.45;101422.25;4993737;28;20066;-75
2023/12/18 04:18:58;;;;;;;248.60;94.75;;;;;;;-4.02;91.63;101421.25;4994463;28;20394;-75
2023/12/18 04:21:44;;;;;;;217.30;91.88;;;;;;;-4.07;92.56;101422.44;4987205;28;20046;-76
2023/12/18 04:24:30;;;;;;;226.35;94.75;;;;;;;-4.11;92.64;101415.72;4994121;28;20050;-75
2023/12/18 04:27:15;;;;;;;220.63;94.03;;;;;;;-4.13;92.29;101414.97;4994166;28;20482;-76
2023/12/18 04:30:01;;;;;;;221.73;96.35;;;;;;;-4.09;91.77;101426.88;4987623;28;20065;-75
2023/12/18 04:32:46;;;;;;;187.45;85.13;;;;;;;-4.10;91.86;101435.59;4988251;28;20046;-76
2023/12/18 04:35:32;;;;;;;207.32;89.18;;;;;;;-4.10;93.01;101431.22;4992251;28;20405;-75
2023/12/18 04:38:18;;;;;;;206.02;88.18;;;;;;;-4.12;91.86;101427.03;4987554;28;20038;-77
2023/12/18 04:41:03;;;;;;;203.90;88.03;;;;;;;-4.11;92.57;101429.53;4993677;28;20405;-76
2023/12/18 04:43:49;;;;;;;202.65;86.38;;;;;;;-4.00;92.49;101428.97;4993731;28;20458;-75
2023/12/18 04:46:35;;;;;;;194.38;84.25;;;;;;;-4.02;92.90;101443.78;4986657;28;20393;-76
2023/12/18 04:49:22;;;;;;;197.13;88.30;;;;;;;-4.07;92.50;101432.81;4987147;28;20042;-75
2023/12/18 04:52:07;;;;;;;189.73;82.65;;;;;;;-4.09;92.93;101427.69;4986546;28;20045;-75
2023/12/18 04:54:53;;;;;;;202.27;89.00;;;;;;;-4.07;91.77;101428.47;4986984;28;20045;-76
2023/12/18 04:57:39;;;;;;;183.52;82.30;;;;;;;-4.20;92.91;101402.31;4986591;28;20037;-77
2023/12/18 05:00:24;;;;;;;143.75;61.80;;;;;;;-4.21;91.83;101416.19;4999510;28;20057;-77
2023/12/18 05:03:10;;;;;;;118.03;51.78;;;;;;;-4.19;91.91;101414.38;5022948;28;20404;-77
2023/12/18 05:05:56;;;;;;;120.80;51.30;;;;;;;-4.23;91.28;101418.06;5024975;28;20033;-76
2023/12/18 05:08:41;;;;;;;110.95;49.95;;;;;;;-4.29;91.75;101400.19;5031099;28;20460;-75
2023/12/18 05:11:27;;;;;;;102.78;45.25;;;;;;;-4.30;91.44;101402.84;5026009;28;20464;-77
2023/12/18 05:14:12;;;;;;;85.60;38.90;;;;;;;-4.35;92.11;101408.31;5023966;28;20405;-77
2023/12/18 05:16:58;;;;;;;97.40;42.80;;;;;;;-4.40;92.07;101420.69;5024042;28;20033;-76
2023/12/18 05:19:43;;;;;;;84.43;40.63;;;;;;;-4.37;92.16;101424.88;5025483;28;20476;-76
2023/12/18 05:22:29;;;;;;;92.47;41.13;;;;;;;-4.38;91.83;101418.03;5025451;28;20041;-76
2023/12/18 05:25:15;;;;;;;93.05;41.35;;;;;;;-4.33;91.48;101426.38;5031432;28;20057;-77
2023/12/18 05:28:00;;;;;;;88.90;43.08;;;;;;;-4.30;91.58;101421.88;5030132;28;20052;-76
2023/12/18 05:30:46;;;;;;;86.82;40.42;;;;;;;-4.33;92.56;101428.97;5032133;28;20737;-77
2023/12/18 05:33:31;;;;;;;125.32;55.03;;;;;;;-4.32;92.42;101426.31;5033092;28;20411;-76
2023/12/18 05:36:17;;;;;;;154.27;65.60;;;;;;;-4.29;92.35;101415.78;5025651;28;20044;-77
2023/12/18 05:39:03;;;;;;;310.17;135.13;;;;;;;-4.37;91.41;101414.50;5025449;28;20036;-76
2023/12/18 05:41:48;;;;;;;179.07;82.35;;;;;;;-4.38;92.42;101413.66;5032443;28;20045;-77
2023/12/18 05:44:34;;;;;;;253.48;115.47;;;;;;;-4.40;92.13;101420.69;5032355;28;20476;-77
2023/12/18 05:47:19;;;;;;;252.27;133.30;;;;;;;-4.41;91.52;101421.59;5032162;28;20048;-76
2023/12/18 05:50:05;;;;;;;166.75;76.55;;;;;;;-4.45;92.36;101418.34;5030709;28;20424;-78
2023/12/18 05:52:50;;;;;;;131.77;62.65;;;;;;;-4.37;92.07;101424.88;5024857;28;20500;-76
2023/12/18 05:55:36;;;;;;;137.20;61.00;;;;;;;-4.43;91.62;101418.25;5024768;28;20041;-76
2023/12/18 05:58:22;;;;;;;133.25;62.80;;;;;;;-4.44;92.22;101420.00;5024732;28;20397;-76
2023/12/18 06:01:08;;;;;;;135.70;66.45;;;;;;;-4.38;91.70;101426.63;5028361;28;20444;-76
2023/12/18 06:03:54;;;;;;;141.00;72.15;;;;;;;-4.33;91.83;101421.19;5025007;28;20053;-75
2023/12/18 06:06:39;;;;;;;142.23;69.63;;;;;;;-4.28;92.05;101424.41;5031671;28;20041;-79
2023/12/18 06:09:25;;;;;;;144.43;69.28;;;;;;;-4.31;92.54;101415.00;5031885;28;20049;-75
2023/12/18 06:12:11;;;;;;;142.13;68.78;;;;;;;-4.24;92.83;101420.72;5023922;28;20400;-76
2023/12/18 06:14:56;;;;;;;150.77;76.43;;;;;;;-4.27;92.32;101426.91;5031129;28;20041;-76
2023/12/18 06:17:42;;;;;;;157.93;81.45;;;;;;;-4.28;92.72;101417.44;5024851;28;20461;-77
2023/12/18 06:20:27;;;;;;;140.45;70.00;;;;;;;-4.11;91.75;101436.47;5016430;28;20400;-76
2023/12/18 06:23:13;;;;;;;129.52;66.97;;;;;;;-4.03;91.57;101431.72;5031312;28;20412;-75
2023/12/18 06:25:59;;;;;;;140.27;69.45;;;;;;;-3.97;92.04;101423.63;5028655;28;20048;-75
2023/12/18 06:28:44;;;;;;;138.32;68.40;;;;;;;-3.97;91.46;101408.03;5031068;28;20494;-76
2023/12/18 06:31:30;;;;;;;140.60;70.60;;;;;;;-3.80;91.27;101420.94;5030639;28;20828;-75
2023/12/18 06:34:15;;;;;;;204.27;89.43;;;;;;;-3.67;91.41;101420.25;5023668;28;20453;-75
2023/12/18 06:37:01;;;;;;;173.02;75.80;;;;;;;-3.48;91.31;101420.91;5031090;28;20040;-77
2023/12/18 06:39:46;;;;;;;188.85;87.03;;;;;;;-3.20;90.34;101417.59;5030275;28;20396;-76
2023/12/18 06:42:32;;;;;;;243.95;108.13;;;;;;;-2.95;88.44;101404.00;5023931;28;20045;-76
2023/12/18 06:45:18;;;;;;;231.05;104.00;;;;;;;-2.30;87.97;101384.56;5031101;28;20457;-76
2023/12/18 06:48:04;;;;;;;185.88;86.65;;;;;;;-1.46;86.19;101405.34;5030690;28;20049;-75
2023/12/18 06:50:49;;;;;;;193.70;85.25;;;;;;;-0.99;82.97;101407.47;5030888;28;20476;-75
2023/12/18 06:53:34;;;;;;;253.48;110.05;;;;;;;-0.78;79.49;101404.38;5023830;28;20041;-76
2023/12/18 06:56:20;;;;;;;268.40;127.25;;;;;;;-0.80;77.91;101411.44;5030734;28;20037;-76
2023/12/18 06:59:06;;;;;;;248.63;121.50;;;;;;;-1.10;78.98;101414.31;5023004;28;20053;-77
2023/12/18 07:01:51;;;;;;;271.58;131.20;;;;;;;-1.42;79.79;101415.47;5021563;28;20045;-77
2023/12/18 07:04:37;;;;;;;298.08;150.43;;;;;;;-1.65;81.46;101403.91;5028564;28;20041;-77
2023/12/18 07:07:22;;;;;;;275.55;136.10;;;;;;;-1.84;82.75;101403.41;5023996;28;20041;-76
2023/12/18 07:10:08;;;;;;;244.48;121.50;;;;;;;-1.92;84.20;101390.84;5029765;28;20052;-78
2023/12/18 07:12:53;;;;;;;237.65;113.93;;;;;;;-1.62;84.63;101405.50;5022931;28;20392;-76
2023/12/18 07:15:39;;;;;;;184.00;87.65;;;;;;;-1.47;83.49;101414.94;5029410;28;20052;-77
2023/12/18 07:18:25;;;;;;;157.13;77.57;;;;;;;-1.47;83.09;101395.84;5023196;28;20037;-79
2023/12/18 07:21:11;;;;;;;119.93;53.10;;;;;;;-1.64;83.82;101407.34;5023721;28;20053;-77
2023/12/18 07:23:57;;;;;;;123.15;57.28;;;;;;;-1.71;84.01;101398.25;5030304;28;20400;-77
2023/12/18 07:26:42;;;;;;;131.75;57.30;;;;;;;-1.77;83.83;101409.06;5030475;28;20456;-78
2023/12/18 07:29:28;;;;;;;95.97;47.13;;;;;;;-1.73;84.17;101410.53;5028540;28;20049;-75
2023/12/18 07:32:13;;;;;;;136.27;60.90;;;;;;;-1.64;84.34;101421.22;5028996;28;20727;-78
2023/12/18 07:35:00;;;;;;;108.53;48.22;;;;;;;-1.66;84.15;101401.38;5029719;28;20465;-79
2023/12/18 07:37:46;;;;;;;106.35;48.60;;;;;;;-1.30;83.82;101431.28;5025141;28;20493;-77
2023/12/18 07:40:31;;;;;;;90.63;45.90;;;;;;;-1.21;83.19;101423.69;5025761;28;20053;-74
2023/12/18 07:43:17;;;;;;;87.35;40.78;;;;;;;-1.29;83.22;101414.69;5025394;28;20037;-76
2023/12/18 07:46:02;;;;;;;93.47;44.60;;;;;;;-0.95;83.28;101429.78;5033604;28;20396;-77
2023/12/18 07:48:48;;;;;;;88.18;45.35;;;;;;;-0.94;82.84;101417.56;5032448;28;20436;-76
2023/12/18 07:51:34;;;;;;;79.07;40.63;;;;;;;-0.97;83.40;101434.31;5031639;28;20048;-76
2023/12/18 07:54:19;;;;;;;92.63;46.00;;;;;;;-1.08;84.25;101420.28;5032893;28;20448;-75
2023/12/18 07:57:05;;;;;;;98.18;47.10;;;;;;;-1.02;84.39;101417.25;5032783;28;20484;-78
2023/12/18 07:59:51;;;;;;;111.53;52.78;;;;;;;-0.76;84.70;101418.97;5032671;28;20045;-76
2023/12/18 08:02:36;;;;;;;167.35;85.95;;;;;;;-0.33;83.63;101425.69;5031114;28;20523;-77
2023/12/18 08:05:21;;;;;;;182.35;100.25;;;;;;;-0.36;82.43;101402.38;5031051;28;20420;-77
2023/12/18 08:08:07;;;;;;;163.43;83.88;;;;;;;-0.04;81.87;101410.59;5031735;28;20053;-78
2023/12/18 08:10:53;;;;;;;163.45;88.50;;;;;;;0.06;81.69;101400.31;5024424;28;20036;-77
2023/12/18 08:13:38;;;;;;;125.65;64.00;;;;;;;0.38;81.49;101405.88;5031876;28;20037;-76
2023/12/18 08:16:26;;;;;;;137.77;67.90;;;;;;;0.60;80.30;101410.41;5024486;28;20053;-78
2023/12/18 08:19:12;;;;;;;141.15;69.93;;;;;;;0.75;79.47;101414.47;5030456;28;20476;-75
2023/12/18 08:21:57;;;;;;;145.75;65.50;;;;;;;0.61;79.07;101419.91;5023302;28;20400;-76
2023/12/18 08:24:43;;;;;;;107.00;52.05;;;;;;;0.41;80.33;101406.50;5029053;28;20523;-77
2023/12/18 08:27:33;;;;;;;117.15;51.17;;;;;;;0.40;80.65;101419.66;5021965;28;20469;-74
2023/12/18 08:30:19;;;;;;;113.75;59.78;;;;;;;0.67;81.02;101414.22;5027446;28;20400;-75
2023/12/18 08:33:04;;;;;;;110.95;58.72;;;;;;;0.87;80.74;101413.59;5021512;28;20029;-78
2023/12/18 08:35:50;;;;;;;91.05;48.47;;;;;;;1.16;79.43;101410.59;5028959;28;20432;-75
2023/12/18 08:38:35;;;;;;;80.57;42.75;;;;;;;1.43;77.37;101412.91;5032765;28;20052;-75
2023/12/18 08:41:21;;;;;;;77.35;38.15;;;;;;;1.29;76.55;101403.50;5027560;28;20067;-77
2023/12/18 08:44:08;;;;;;;77.47;40.63;;;;;;;1.49;76.47;101406.38;5028161;28;20412;-75
2023/12/18 08:46:53;;;;;;;79.35;41.40;;;;;;;1.31;76.32;101406.81;5035132;28;20072;-76
2023/12/18 08:49:38;;;;;;;90.13;45.65;;;;;;;1.30;76.02;101397.28;5026974;28;20044;-75
2023/12/18 08:52:23;;;;;;;106.60;52.30;;;;;;;1.64;78.13;101412.22;5035165;28;20396;-75
2023/12/18 08:55:09;;;;;;;93.60;49.47;;;;;;;1.89;76.35;101411.16;5028124;28;20048;-76
2023/12/18 08:57:55;;;;;;;102.72;50.40;;;;;;;2.05;74.97;101401.97;5034686;28;20478;-75
2023/12/18 09:00:40;;;;;;;101.78;47.20;;;;;;;2.12;75.73;101401.47;4989007;28;1218885;-75
2023/12/18 09:03:26;;;;;;;86.18;42.30;;;;;;;2.21;74.49;101400.75;5030265;28;20392;-75
2023/12/18 09:06:11;;;;;;;99.03;43.47;;;;;;;2.13;74.28;101388.25;5029949;28;20052;-75
2023/12/18 09:08:57;;;;;;;92.15;46.58;;;;;;;2.39;73.93;101388.78;5036395;28;20060;-76
2023/12/18 09:11:43;;;;;;;107.22;50.03;;;;;;;2.41;73.42;101371.09;5029953;28;20044;-77
2023/12/18 09:14:28;;;;;;;96.03;50.08;;;;;;;2.84;74.10;101382.53;5036510;28;20041;-78
2023/12/18 09:17:14;;;;;;;81.63;38.60;;;;;;;3.05;71.12;101375.50;5031023;28;20079;-76
2023/12/18 09:19:59;;;;;;;94.78;45.85;;;;;;;3.22;71.88;101358.31;5036295;28;20385;-76
2023/12/18 09:22:50;;;;;;;84.25;44.50;;;;;;;3.21;70.95;101360.09;5028169;28;20063;-76
2023/12/18 09:25:35;;;;;;;70.80;32.95;;;;;;;3.11;70.33;101353.13;5036189;28;20048;-77
2023/12/18 09:28:22;;;;;;;66.40;34.10;;;;;;;3.31;69.70;101356.69;5029328;28;20048;-75
2023/12/18 09:31:08;;;;;;;61.35;31.88;;;;;;;3.42;69.48;101340.84;5028001;28;20063;-76
2023/12/18 09:33:53;;;;;;;51.85;26.83;;;;;;;3.44;68.42;101328.38;5035481;28;20383;-76
2023/12/18 09:36:39;;;;;;;55.10;26.52;;;;;;;3.56;68.32;101329.97;5036270;28;20072;-76
2023/12/18 09:39:25;;;;;;;52.08;28.05;;;;;;;3.83;67.35;101316.22;5029189;28;20388;-75
2023/12/18 09:42:10;;;;;;;56.08;27.75;;;;;;;3.96;67.08;101318.59;5029706;28;20406;-78
2023/12/18 09:44:57;;;;;;;44.65;25.83;;;;;;;4.08;66.06;101311.44;5035996;28;20076;-78
2023/12/18 09:47:42;;;;;;;47.28;27.00;;;;;;;4.29;64.53;101314.75;5034889;28;20475;-77
2023/12/18 09:50:28;;;;;;;36.75;20.98;;;;;;;4.44;63.94;101309.91;5035081;28;20636;-75
2023/12/18 09:53:16;;;;;;;54.55;28.33;;;;;;;4.49;63.78;101288.44;5035449;28;20071;-76
2023/12/18 09:56:02;;;;;;;52.83;28.67;;;;;;;4.72;62.91;101302.13;5028443;28;20404;-77
2023/12/18 09:58:48;;;;;;;60.78;30.77;;;;;;;4.70;62.68;101280.38;5035432;28;20052;-77
2023/12/18 10:01:34;;;;;;;42.90;23.85;;;;;;;4.79;60.32;101297.97;5030843;28;20472;-76
2023/12/18 10:04:20;;;;;;;43.10;21.80;;;;;;;4.83;59.39;101291.47;5033897;28;20400;-77
2023/12/18 10:07:05;;;;;;;48.97;25.75;;;;;;;4.72;60.39;101283.69;5029194;28;20045;-76
2023/12/18 10:09:51;;;;;;;50.83;27.88;;;;;;;4.86;61.01;101286.72;5034665;28;20044;-77
2023/12/18 10:12:38;;;;;;;48.60;25.67;;;;;;;4.91;60.73;101286.28;5029197;28;20052;-78
2023/12/18 10:15:23;;;;;;;37.63;20.10;;;;;;;4.71;59.81;101274.97;5030737;28;20064;-77
2023/12/18 10:18:11;;;;;;;45.17;25.90;;;;;;;4.79;61.51;101268.97;5030732;28;20131;-76
2023/12/18 10:20:56;;;;;;;32.67;19.25;;;;;;;4.86;60.62;101270.94;5028947;28;20060;-78
2023/12/18 10:23:41;;;;;;;38.60;22.38;;;;;;;5.05;60.22;101251.59;5030170;28;20056;-76
2023/12/18 10:26:28;;;;;;;41.85;22.48;;;;;;;5.19;60.47;101255.56;5029926;28;20491;-78
2023/12/18 10:29:15;;;;;;;37.78;17.40;;;;;;;5.13;60.46;101244.75;5030620;28;20246;-76
2023/12/18 10:32:01;;;;;;;37.65;19.38;;;;;;;5.23;59.88;101261.34;5015320;28;20067;-76
2023/12/18 10:34:49;;;;;;;28.55;15.13;;;;;;;5.34;58.54;101269.09;5029750;28;20476;-76
2023/12/18 10:37:35;;;;;;;22.30;13.45;;;;;;;5.31;57.96;101262.31;5028523;28;20056;-77
2023/12/18 10:40:23;;;;;;;24.33;13.93;;;;;;;5.57;57.27;101241.34;5028402;28;20052;-77
2023/12/18 10:43:21;;;;;;;28.45;12.55;;;;;;;5.67;56.71;101251.88;5029757;28;20060;-77
2023/12/18 10:46:07;;;;;;;28.92;14.18;;;;;;;5.67;57.81;101248.38;5028999;28;20044;-77
2023/12/18 10:48:52;;;;;;;23.05;13.55;;;;;;;5.85;56.44;101228.13;5028803;28;20111;-76
2023/12/18 10:51:39;;;;;;;24.95;13.40;;;;;;;5.84;56.32;101231.75;5030102;28;20396;-75
2023/12/18 10:54:24;;;;;;;24.42;13.40;;;;;;;5.98;57.41;101235.69;5029000;28;20048;-76
2023/12/18 10:57:10;;;;;;;23.75;13.57;;;;;;;6.05;57.78;101226.22;5029694;28;20063;-75
2023/12/18 10:59:56;;;;;;;23.90;12.38;;;;;;;6.14;56.86;101225.31;5022564;28;20567;-76
2023/12/18 11:02:43;;;;;;;19.20;11.60;;;;;;;6.11;55.73;101209.78;5029980;28;20063;-77
2023/12/18 11:05:30;;;;;;;23.38;12.07;;;;;;;6.08;55.30;101198.66;5029064;28;20099;-76
2023/12/18 11:08:15;;;;;;;19.48;11.05;;;;;;;6.13;54.39;101204.31;5015233;28;20417;-77
2023/12/18 11:11:02;;;;;;;17.95;10.23;;;;;;;6.17;54.71;101189.81;5029164;28;20147;-77
2023/12/18 11:14:15;;;;;;;21.92;11.70;;;;;;;6.42;54.81;101196.13;5025050;28;20507;-77
2023/12/18 11:17:16;;;;;;;21.65;12.00;;;;;;;6.65;55.19;101185.91;5027906;28;20072;-78
2023/12/18 11:20:19;;;;;;;20.33;10.80;;;;;;;6.56;54.37;101173.63;5033303;28;20044;-76
2023/12/18 11:23:05;;;;;;;18.88;10.65;;;;;;;6.56;55.12;101171.78;5026193;28;20048;-75
2023/12/18 11:25:51;;;;;;;23.05;11.38;;;;;;;6.70;54.75;101168.56;5034324;28;20049;-76
2023/12/18 11:28:38;;;;;;;22.02;11.20;;;;;;;6.83;55.81;101162.88;5034128;28;20420;-76
2023/12/18 11:31:24;;;;;;;25.63;13.02;;;;;;;6.89;54.03;101156.97;5033705;28;20052;-77
2023/12/18 11:34:10;;;;;;;24.98;13.27;;;;;;;6.91;54.75;101143.56;5026558;28;20052;-77
2023/12/18 11:36:55;;;;;;;20.17;11.95;;;;;;;7.05;54.32;101139.47;5036128;28;20048;-77
2023/12/18 11:39:41;;;;;;;35.05;18.52;;;;;;;7.11;52.68;101136.19;5036899;28;20052;-77
2023/12/18 11:42:45;;;;;;;42.50;21.63;;;;;;;7.23;52.33;101136.75;5030089;28;20147;-78
2023/12/18 11:45:42;;;;;;;41.30;20.80;;;;;;;7.21;52.02;101122.84;5031668;28;20072;-78
2023/12/18 11:48:27;;;;;;;34.20;19.77;;;;;;;7.35;52.55;101115.13;5038051;28;20399;-77
2023/12/18 11:51:15;;;;;;;34.83;16.20;;;;;;;7.46;51.99;101119.28;5037959;28;20079;-76
2023/12/18 11:54:01;;;;;;;40.40;19.10;;;;;;;7.66;50.52;101111.84;5037537;28;20389;-75
2023/12/18 11:56:47;;;;;;;27.92;13.70;;;;;;;7.70;48.92;101113.16;5030550;28;20116;-76
2023/12/18 11:59:33;;;;;;;28.38;15.18;;;;;;;7.75;49.77;101110.88;5037424;28;20060;-77
2023/12/18 12:02:19;;;;;;;18.00;10.40;;;;;;;7.69;49.01;101105.41;5030742;28;20179;-79
2023/12/18 12:05:06;;;;;;;19.23;11.13;;;;;;;7.75;49.26;101108.22;5037439;28;20047;-76
2023/12/18 12:07:52;;;;;;;20.33;10.77;;;;;;;7.79;51.15;101103.41;5037132;28;20052;-76
2023/12/18 12:10:44;;;;;;;20.08;10.30;;;;;;;7.91;51.09;101098.63;5037853;28;20071;-76
2023/12/18 12:13:29;;;;;;;22.85;12.57;;;;;;;7.94;51.67;101093.00;5030653;28;20048;-76
2023/12/18 12:16:18;;;;;;;25.33;13.68;;;;;;;8.00;50.34;101095.81;5037058;28;20072;-77
2023/12/18 12:19:03;;;;;;;20.73;11.52;;;;;;;7.99;49.92;101095.97;5037283;28;20056;-76
2023/12/18 12:21:48;;;;;;;22.15;11.70;;;;;;;8.05;49.39;101085.56;5037372;28;20112;-76
2023/12/18 12:24:37;;;;;;;20.20;9.65;;;;;;;8.04;48.48;101073.28;5036814;28;20064;-77
2023/12/18 12:27:24;;;;;;;22.33;11.27;;;;;;;8.09;48.39;101081.56;5037412;28;20040;-75
2023/12/18 12:30:11;;;;;;;22.13;12.05;;;;;;;8.15;47.95;101079.22;5037227;28;20040;-77
2023/12/18 12:32:57;;;;;;;22.00;12.48;;;;;;;8.18;47.70;101068.28;5030665;28;20408;-77